»·PEaware :: N930ET CYEG-CYVR

N930ET :: CYEG-CYVR

FLIGHT INFORMATION

Flight Status: Arrived
Operator: Privately registered:
United States
More flights under this callsign
Pilot: Lester F. (25731)
Aircraft: SOCATA TBM-900
(TBM9)
More flights by this aircraft type
Origin: CYEG Edmonton Intl
Canada
Destination: CYVR Vancouver Intl
Canada
More flights between these airports :: More routes between these airports
Route: ZAB ANDIE NADPI MERYT SPUZZ BOOTH VITEV STAVE MOGUS OBTOT SAVED VR
File this flight plan on PilotEdge
Remarks:
Altitude:
(Current/Filed)
28,000ft
Speed:
(Current/Filed)
200kts
Departed: 29-Sep-20 01:05 PM
Arrived: 29-Sep-20 02:53 PM
Distance/Time
Traveled:
436nm/1:48
Distance/Time
To Go:
Arrived

Flight Plot

Page will automatically refresh every two minutes.

Flight plan parsing failed; only flown route is shown


Map Options




Map Legend


Flown Route
Filed Route
Departure Airport
Arrival Airport
Navaid (VOR, NDB)
Fix

Horizontal Profiles

Position Reports

Time Latitude Longitude Heading Altitude Ground
Speed
29-Sep-20 12:52 53.306411 -113.585117 44 2332ft 0kts
29-Sep-20 12:53 53.306411 -113.585117 44 2332ft 0kts
29-Sep-20 12:54 53.306411 -113.585117 44 2332ft 0kts
29-Sep-20 12:55 53.306411 -113.585117 44 2332ft 0kts
29-Sep-20 12:56 53.306411 -113.585117 44 2332ft 0kts
29-Sep-20 12:57 53.306411 -113.585117 44 2332ft 0kts
29-Sep-20 12:58 53.305934 -113.585890 44 2332ft 2kts
29-Sep-20 13:00 53.306010 -113.586272 245 2332ft 2kts
29-Sep-20 13:01 53.306379 -113.588584 345 2330ft 7kts
29-Sep-20 13:02 53.307495 -113.589718 267 2328ft 3kts
29-Sep-20 13:03 53.307419 -113.593202 274 2326ft 7kts
29-Sep-20 13:04 53.306833 -113.594429 214 2326ft 0kts
29-Sep-20 13:05 53.304333 -113.592497 134 2331ft 58kts
29-Sep-20 13:06 53.281656 -113.551725 127 3537ft 151kts
29-Sep-20 13:07 53.255089 -113.505927 136 5840ft 126kts
29-Sep-20 13:08 53.230019 -113.468419 129 6962ft 143kts
29-Sep-20 13:09 53.196342 -113.414129 132 8078ft 175kts
29-Sep-20 13:10 53.171512 -113.438228 274 9982ft 138kts
29-Sep-20 13:11 53.162019 -113.502375 261 11970ft 145kts
29-Sep-20 13:12 53.149530 -113.566817 263 13926ft 148kts
29-Sep-20 13:13 53.136336 -113.634414 263 15723ft 161kts
29-Sep-20 13:14 53.122565 -113.705008 267 17732ft 159kts
29-Sep-20 13:15 53.108890 -113.774837 269 19673ft 160kts
29-Sep-20 13:16 53.094791 -113.846394 270 21465ft 165kts
29-Sep-20 13:16 53.082763 -113.907336 270 22957ft 169kts
29-Sep-20 13:18 53.065451 -113.995286 269 24739ft 192kts
29-Sep-20 13:19 53.047302 -114.085837 268 26030ft 208kts
29-Sep-20 13:19 53.032000 -114.162227 267 27311ft 212kts
29-Sep-20 13:20 53.012803 -114.258028 265 28421ft 230kts
29-Sep-20 13:21 52.990115 -114.365940 260 28500ft 265kts
29-Sep-20 13:23 52.942313 -114.495237 251 28503ft 290kts
29-Sep-20 13:23 52.903969 -114.589250 249 28500ft 297kts
29-Sep-20 13:24 52.857589 -114.702656 248 28482ft 298kts
29-Sep-20 13:25 52.810852 -114.816135 248 28473ft 299kts
29-Sep-20 13:26 52.763794 -114.929784 247 28464ft 299kts
29-Sep-20 13:27 52.716801 -115.042737 247 28463ft 300kts
29-Sep-20 13:28 52.673243 -115.146967 247 28450ft 300kts
29-Sep-20 13:29 52.622091 -115.268859 247 28443ft 300kts
29-Sep-20 13:30 52.574597 -115.381480 246 28433ft 300kts
29-Sep-20 13:31 52.527027 -115.493785 246 28428ft 299kts
29-Sep-20 13:32 52.479284 -115.606009 246 28412ft 299kts
29-Sep-20 13:33 52.431832 -115.717088 246 28431ft 298kts
29-Sep-20 13:34 52.383727 -115.829190 245 28473ft 301kts
29-Sep-20 13:35 52.335556 -115.940984 245 28414ft 300kts
29-Sep-20 13:36 52.287426 -116.052138 244 28403ft 300kts
29-Sep-20 13:37 52.239409 -116.162559 244 28384ft 295kts
29-Sep-20 13:38 52.191388 -116.272553 244 28414ft 300kts
29-Sep-20 13:39 52.142750 -116.383473 243 28378ft 302kts
29-Sep-20 13:40 52.093993 -116.494149 242 28219ft 299kts
29-Sep-20 13:41 52.046497 -116.601380 242 28249ft 289kts
29-Sep-20 13:42 52.000582 -116.704878 243 28236ft 280kts
29-Sep-20 13:43 51.954167 -116.808945 242 28277ft 289kts
29-Sep-20 13:44 51.907704 -116.912984 243 28299ft 282kts
29-Sep-20 13:45 51.859633 -117.019729 242 28356ft 301kts
29-Sep-20 13:46 51.810427 -117.128802 241 28317ft 303kts
29-Sep-20 13:47 51.761647 -117.236368 242 28345ft 297kts
29-Sep-20 13:48 51.712760 -117.343721 241 28320ft 296kts
29-Sep-20 13:49 51.663265 -117.451877 241 28336ft 301kts
29-Sep-20 13:50 51.613755 -117.559663 241 28185ft 295kts
29-Sep-20 13:51 51.564865 -117.665700 241 28323ft 296kts
29-Sep-20 13:52 51.516076 -117.771193 241 28360ft 296kts
29-Sep-20 13:53 51.467295 -117.877713 244 28232ft 290kts
29-Sep-20 13:54 51.422194 -117.983076 244 28374ft 290kts
29-Sep-20 13:55 51.375931 -118.090274 243 28325ft 294kts
29-Sep-20 13:56 51.328208 -118.200300 242 28326ft 306kts
29-Sep-20 13:57 51.279849 -118.311205 242 28287ft 302kts
29-Sep-20 13:58 51.232031 -118.420419 242 28342ft 303kts
29-Sep-20 13:59 51.183384 -118.531001 242 28326ft 304kts
29-Sep-20 14:00 51.134138 -118.642437 242 28264ft 307kts
29-Sep-20 14:01 51.085426 -118.752302 242 28168ft 299kts
29-Sep-20 14:02 51.037383 -118.860245 241 28325ft 304kts
29-Sep-20 14:03 50.987774 -118.971107 241 28348ft 312kts
29-Sep-20 14:04 50.937643 -119.082636 241 28244ft 306kts
29-Sep-20 14:05 50.888274 -119.192168 241 28334ft 308kts
29-Sep-20 14:06 50.837996 -119.303173 241 28350ft 313kts
29-Sep-20 14:07 50.787475 -119.414304 240 28277ft 308kts
29-Sep-20 14:08 50.737300 -119.524112 240 28283ft 310kts
29-Sep-20 14:09 50.686873 -119.634095 240 28319ft 309kts
29-Sep-20 14:10 50.636692 -119.743003 240 28279ft 305kts
29-Sep-20 14:11 50.586456 -119.851601 239 28291ft 308kts
29-Sep-20 14:12 50.535989 -119.960260 239 28290ft 307kts
29-Sep-20 14:13 50.485359 -120.068821 239 28283ft 308kts
29-Sep-20 14:14 50.434828 -120.176720 239 28282ft 307kts
29-Sep-20 14:15 50.384156 -120.284466 238 28284ft 306kts
29-Sep-20 14:16 50.333490 -120.391750 238 28282ft 307kts
29-Sep-20 14:17 50.282940 -120.498394 238 28258ft 304kts
29-Sep-20 14:18 50.232629 -120.604098 238 28297ft 304kts
29-Sep-20 14:19 50.181985 -120.710042 238 28247ft 304kts
29-Sep-20 14:20 50.131577 -120.815081 237 28289ft 303kts
29-Sep-20 14:21 50.080835 -120.920416 237 28277ft 305kts
29-Sep-20 14:22 50.030032 -121.025456 237 28273ft 304kts
29-Sep-20 14:23 49.979050 -121.130388 237 28259ft 303kts
29-Sep-20 14:24 49.927792 -121.233878 236 28267ft 302kts
29-Sep-20 14:25 49.874558 -121.338198 235 26501ft 325kts
29-Sep-20 14:26 49.819166 -121.445774 234 24762ft 308kts
29-Sep-20 14:27 49.767341 -121.545802 235 22967ft 289kts
29-Sep-20 14:28 49.718005 -121.639985 234 21048ft 276kts
29-Sep-20 14:29 49.670356 -121.730462 234 19216ft 268kts
29-Sep-20 14:30 49.624722 -121.816918 233 18317ft 248kts
29-Sep-20 14:31 49.580787 -121.900004 234 18236ft 259kts
29-Sep-20 14:32 49.532230 -121.992785 233 16112ft 281kts
29-Sep-20 14:33 49.483596 -122.085587 232 14113ft 271kts
29-Sep-20 14:34 49.439032 -122.170202 232 12011ft 246kts
29-Sep-20 14:35 49.396956 -122.249397 230 10264ft 229kts
29-Sep-20 14:36 49.358881 -122.320670 230 9981ft 219kts
29-Sep-20 14:37 49.318308 -122.396699 231 9964ft 237kts
29-Sep-20 14:38 49.276194 -122.475924 231 9768ft 248kts
29-Sep-20 14:39 49.235598 -122.552385 230 7498ft 221kts
29-Sep-20 14:40 49.197622 -122.624087 230 5201ft 215kts
29-Sep-20 14:41 49.160053 -122.698261 235 4216ft 219kts
29-Sep-20 14:42 49.139602 -122.774698 285 3199ft 172kts
29-Sep-20 14:43 49.147678 -122.837406 281 3002ft 155kts
29-Sep-20 14:44 49.154178 -122.894304 280 2895ft 127kts
29-Sep-20 14:45 49.160553 -122.949972 280 2866ft 142kts
29-Sep-20 14:46 49.165451 -122.992600 281 2589ft 84kts
29-Sep-20 14:47 49.169370 -123.026964 280 2011ft 81kts
29-Sep-20 14:48 49.173179 -123.060260 280 1448ft 83kts
29-Sep-20 14:49 49.177183 -123.095173 281 959ft 83kts
29-Sep-20 14:50 49.181272 -123.130511 281 552ft 86kts
29-Sep-20 14:51 49.185022 -123.163784 282 11ft 66kts
29-Sep-20 14:52 49.187397 -123.177186 336 12ft 19kts
29-Sep-20 14:53 49.188303 -123.173510 100 11ft 10kts
29-Sep-20 14:54 49.186897 -123.175753 256 14ft 8kts
29-Sep-20 14:55 49.188929 -123.178991 281 11ft 12kts
29-Sep-20 14:56 49.189447 -123.183512 280 11ft 9kts
29-Sep-20 14:57 49.191581 -123.186851 320 11ft 11kts
29-Sep-20 14:58 49.194549 -123.187373 8 12ft 10kts
29-Sep-20 14:59 49.197227 -123.186375 38 12ft 12kts
29-Sep-20 15:00 49.199999 -123.185218 10 14ft 11kts
29-Sep-20 15:02 49.200002 -123.180594 99 13ft 13kts
29-Sep-20 15:03 49.199174 -123.175644 99 13ft 12kts
29-Sep-20 15:04 49.197429 -123.171920 181 12ft 12kts
29-Sep-20 15:05 49.196235 -123.175114 240 12ft 8kts

Navigation Log

Ident Type
Flight plan parsing failed, navigation log unavailable